sensor_id;sensor_type;location;lat;lon;timestamp;temperature;humidity
42245;DHT22;27912;51.828;5.688;2022-12-29T00:01:47;11.00;99.90
42245;DHT22;27912;51.828;5.688;2022-12-29T00:04:14;11.00;99.90
42245;DHT22;27912;51.828;5.688;2022-12-29T00:06:40;11.00;99.90
42245;DHT22;27912;51.828;5.688;2022-12-29T00:09:06;11.10;99.90
42245;DHT22;27912;51.828;5.688;2022-12-29T00:11:32;11.10;99.90
42245;DHT22;27912;51.828;5.688;2022-12-29T00:13:57;11.10;99.90
42245;DHT22;27912;51.828;5.688;2022-12-29T00:16:43;11.10;99.90
42245;DHT22;27912;51.828;5.688;2022-12-29T00:19:09;11.10;99.90
42245;DHT22;27912;51.828;5.688;2022-12-29T00:21:55;11.10;99.90
42245;DHT22;27912;51.828;5.688;2022-12-29T00:24:39;11.10;99.90
42245;DHT22;27912;51.828;5.688;2022-12-29T00:27:23;11.10;99.90
42245;DHT22;27912;51.828;5.688;2022-12-29T00:30:12;11.10;99.90
42245;DHT22;27912;51.828;5.688;2022-12-29T00:32:57;11.10;99.90
42245;DHT22;27912;51.828;5.688;2022-12-29T00:38:25;11.10;99.90
42245;DHT22;27912;51.828;5.688;2022-12-29T00:41:10;11.00;99.90
42245;DHT22;27912;51.828;5.688;2022-12-29T00:43:54;11.00;99.90
42245;DHT22;27912;51.828;5.688;2022-12-29T00:46:36;11.00;99.90
42245;DHT22;27912;51.828;5.688;2022-12-29T00:49:03;11.00;99.90
42245;DHT22;27912;51.828;5.688;2022-12-29T00:51:47;11.00;99.90
42245;DHT22;27912;51.828;5.688;2022-12-29T00:54:13;11.00;99.90
42245;DHT22;27912;51.828;5.688;2022-12-29T00:56:39;11.00;99.90
42245;DHT22;27912;51.828;5.688;2022-12-29T00:59:07;11.00;99.90
42245;DHT22;27912;51.828;5.688;2022-12-29T01:01:34;11.00;99.90
42245;DHT22;27912;51.828;5.688;2022-12-29T01:04:00;11.00;99.90
42245;DHT22;27912;51.828;5.688;2022-12-29T01:06:26;11.00;99.90
42245;DHT22;27912;51.828;5.688;2022-12-29T01:08:51;11.00;99.90
42245;DHT22;27912;51.828;5.688;2022-12-29T01:11:36;10.90;99.90
42245;DHT22;27912;51.828;5.688;2022-12-29T01:14:01;10.90;99.90
42245;DHT22;27912;51.828;5.688;2022-12-29T01:16:27;10.90;99.90
42245;DHT22;27912;51.828;5.688;2022-12-29T01:18:53;10.90;99.90
42245;DHT22;27912;51.828;5.688;2022-12-29T01:21:18;10.80;99.90
42245;DHT22;27912;51.828;5.688;2022-12-29T01:23:44;10.80;99.90
42245;DHT22;27912;51.828;5.688;2022-12-29T01:26:14;10.80;99.90
42245;DHT22;27912;51.828;5.688;2022-12-29T01:28:41;10.80;99.90
42245;DHT22;27912;51.828;5.688;2022-12-29T01:31:11;10.80;99.90
42245;DHT22;27912;51.828;5.688;2022-12-29T01:33:38;10.80;99.90
42245;DHT22;27912;51.828;5.688;2022-12-29T01:36:06;10.70;99.90
42245;DHT22;27912;51.828;5.688;2022-12-29T01:38:34;10.70;99.90
42245;DHT22;27912;51.828;5.688;2022-12-29T01:41:00;10.70;99.90
42245;DHT22;27912;51.828;5.688;2022-12-29T01:43:43;10.70;99.90
42245;DHT22;27912;51.828;5.688;2022-12-29T01:46:34;10.80;99.90
42245;DHT22;27912;51.828;5.688;2022-12-29T01:51:37;10.70;99.90
42245;DHT22;27912;51.828;5.688;2022-12-29T01:54:07;10.80;99.90
42245;DHT22;27912;51.828;5.688;2022-12-29T01:56:34;10.80;99.90
42245;DHT22;27912;51.828;5.688;2022-12-29T01:59:04;10.90;99.90
42245;DHT22;27912;51.828;5.688;2022-12-29T02:01:31;10.90;99.90
42245;DHT22;27912;51.828;5.688;2022-12-29T02:03:58;11.00;99.90
42245;DHT22;27912;51.828;5.688;2022-12-29T02:06:31;11.00;99.90
42245;DHT22;27912;51.828;5.688;2022-12-29T02:08:59;11.10;99.90
42245;DHT22;27912;51.828;5.688;2022-12-29T02:11:26;11.10;99.90
42245;DHT22;27912;51.828;5.688;2022-12-29T02:13:53;11.20;99.90
42245;DHT22;27912;51.828;5.688;2022-12-29T02:28:14;11.30;99.90
42245;DHT22;27912;51.828;5.688;2022-12-29T02:30:58;11.30;99.90
42245;DHT22;27912;51.828;5.688;2022-12-29T02:33:55;11.40;99.90
42245;DHT22;27912;51.828;5.688;2022-12-29T02:36:37;11.50;99.90
42245;DHT22;27912;51.828;5.688;2022-12-29T02:44:17;11.50;99.90
42245;DHT22;27912;51.828;5.688;2022-12-29T02:46:53;11.50;99.90
42245;DHT22;27912;51.828;5.688;2022-12-29T02:49:30;11.50;99.90
42245;DHT22;27912;51.828;5.688;2022-12-29T02:52:03;11.60;99.90
42245;DHT22;27912;51.828;5.688;2022-12-29T02:54:31;11.60;99.90
42245;DHT22;27912;51.828;5.688;2022-12-29T02:57:30;11.60;99.90
42245;DHT22;27912;51.828;5.688;2022-12-29T03:00:15;11.60;99.90
42245;DHT22;27912;51.828;5.688;2022-12-29T03:11:11;11.70;99.90
42245;DHT22;27912;51.828;5.688;2022-12-29T03:17:18;11.70;99.90
42245;DHT22;27912;51.828;5.688;2022-12-29T03:19:49;11.70;99.90
42245;DHT22;27912;51.828;5.688;2022-12-29T03:22:22;11.70;99.90
42245;DHT22;27912;51.828;5.688;2022-12-29T03:25:18;11.70;99.90
42245;DHT22;27912;51.828;5.688;2022-12-29T03:27:50;11.70;99.90
42245;DHT22;27912;51.828;5.688;2022-12-29T03:30:17;11.70;99.90
42245;DHT22;27912;51.828;5.688;2022-12-29T03:32:55;11.60;99.90
42245;DHT22;27912;51.828;5.688;2022-12-29T03:35:23;11.60;99.90
42245;DHT22;27912;51.828;5.688;2022-12-29T03:38:00;11.50;99.90
42245;DHT22;27912;51.828;5.688;2022-12-29T03:40:28;11.50;99.90
42245;DHT22;27912;51.828;5.688;2022-12-29T03:42:56;11.50;99.90
42245;DHT22;27912;51.828;5.688;2022-12-29T03:45:22;11.50;99.90
42245;DHT22;27912;51.828;5.688;2022-12-29T03:47:48;11.60;99.90
42245;DHT22;27912;51.828;5.688;2022-12-29T03:50:13;11.50;99.90
42245;DHT22;27912;51.828;5.688;2022-12-29T03:52:39;11.50;99.90
42245;DHT22;27912;51.828;5.688;2022-12-29T03:55:05;11.50;99.90
42245;DHT22;27912;51.828;5.688;2022-12-29T03:57:31;11.50;99.90
42245;DHT22;27912;51.828;5.688;2022-12-29T03:59:56;11.40;99.90
42245;DHT22;27912;51.828;5.688;2022-12-29T04:02:22;11.40;99.90
42245;DHT22;27912;51.828;5.688;2022-12-29T04:04:48;11.40;99.90
42245;DHT22;27912;51.828;5.688;2022-12-29T04:07:14;11.40;99.90
42245;DHT22;27912;51.828;5.688;2022-12-29T04:09:40;11.30;99.90
42245;DHT22;27912;51.828;5.688;2022-12-29T04:12:05;11.40;99.90
42245;DHT22;27912;51.828;5.688;2022-12-29T04:14:31;11.40;99.90
42245;DHT22;27912;51.828;5.688;2022-12-29T04:16:56;11.40;99.90
42245;DHT22;27912;51.828;5.688;2022-12-29T04:19:22;11.30;99.90
42245;DHT22;27912;51.828;5.688;2022-12-29T04:21:47;11.40;99.90
42245;DHT22;27912;51.828;5.688;2022-12-29T04:24:13;11.40;99.90
42245;DHT22;27912;51.828;5.688;2022-12-29T04:26:40;11.40;99.90
42245;DHT22;27912;51.828;5.688;2022-12-29T04:29:06;11.40;99.90
42245;DHT22;27912;51.828;5.688;2022-12-29T04:31:32;11.30;99.90
42245;DHT22;27912;51.828;5.688;2022-12-29T04:33:57;11.30;99.90
42245;DHT22;27912;51.828;5.688;2022-12-29T04:36:25;11.30;99.90
42245;DHT22;27912;51.828;5.688;2022-12-29T04:38:50;11.30;99.90
42245;DHT22;27912;51.828;5.688;2022-12-29T04:41:16;11.30;99.90
42245;DHT22;27912;51.828;5.688;2022-12-29T04:43:42;11.30;99.90
42245;DHT22;27912;51.828;5.688;2022-12-29T04:46:07;11.30;99.90
42245;DHT22;27912;51.828;5.688;2022-12-29T04:48:33;11.20;99.90
42245;DHT22;27912;51.828;5.688;2022-12-29T04:50:58;11.20;99.90
42245;DHT22;27912;51.828;5.688;2022-12-29T04:53:24;11.20;99.90
42245;DHT22;27912;51.828;5.688;2022-12-29T04:55:51;11.20;99.90
42245;DHT22;27912;51.828;5.688;2022-12-29T04:58:18;11.20;99.90
42245;DHT22;27912;51.828;5.688;2022-12-29T05:00:44;11.10;99.90
42245;DHT22;27912;51.828;5.688;2022-12-29T05:03:10;11.00;99.90
42245;DHT22;27912;51.828;5.688;2022-12-29T05:05:39;10.90;99.90
42245;DHT22;27912;51.828;5.688;2022-12-29T05:08:05;10.80;99.90
42245;DHT22;27912;51.828;5.688;2022-12-29T05:10:31;10.70;99.90
42245;DHT22;27912;51.828;5.688;2022-12-29T05:12:58;10.60;99.90
42245;DHT22;27912;51.828;5.688;2022-12-29T05:15:23;10.50;99.90
42245;DHT22;27912;51.828;5.688;2022-12-29T05:17:49;10.40;99.90
42245;DHT22;27912;51.828;5.688;2022-12-29T05:20:16;10.30;99.90
42245;DHT22;27912;51.828;5.688;2022-12-29T05:22:41;10.20;99.90
42245;DHT22;27912;51.828;5.688;2022-12-29T05:25:08;10.10;99.90
42245;DHT22;27912;51.828;5.688;2022-12-29T05:27:34;10.00;99.90
42245;DHT22;27912;51.828;5.688;2022-12-29T05:29:59;9.90;99.90
42245;DHT22;27912;51.828;5.688;2022-12-29T05:32:25;9.90;99.90
42245;DHT22;27912;51.828;5.688;2022-12-29T05:34:50;9.90;99.90
42245;DHT22;27912;51.828;5.688;2022-12-29T05:37:16;10.00;99.90
42245;DHT22;27912;51.828;5.688;2022-12-29T05:39:41;9.90;99.90
42245;DHT22;27912;51.828;5.688;2022-12-29T05:42:07;9.90;99.90
42245;DHT22;27912;51.828;5.688;2022-12-29T05:44:33;9.90;99.90
42245;DHT22;27912;51.828;5.688;2022-12-29T05:46:58;10.00;99.90
42245;DHT22;27912;51.828;5.688;2022-12-29T05:49:24;10.00;99.90
42245;DHT22;27912;51.828;5.688;2022-12-29T05:51:49;10.00;99.90
42245;DHT22;27912;51.828;5.688;2022-12-29T05:54:15;10.00;99.90
42245;DHT22;27912;51.828;5.688;2022-12-29T05:56:41;10.00;99.90
42245;DHT22;27912;51.828;5.688;2022-12-29T05:59:06;10.00;99.90
42245;DHT22;27912;51.828;5.688;2022-12-29T06:01:32;10.00;99.90
42245;DHT22;27912;51.828;5.688;2022-12-29T06:03:59;10.00;99.90
42245;DHT22;27912;51.828;5.688;2022-12-29T06:06:25;9.90;99.90
42245;DHT22;27912;51.828;5.688;2022-12-29T06:08:51;10.00;99.90
42245;DHT22;27912;51.828;5.688;2022-12-29T06:11:16;9.90;99.90
42245;DHT22;27912;51.828;5.688;2022-12-29T06:13:43;9.90;99.90
42245;DHT22;27912;51.828;5.688;2022-12-29T06:16:08;9.90;99.90
42245;DHT22;27912;51.828;5.688;2022-12-29T06:18:34;9.80;99.90
42245;DHT22;27912;51.828;5.688;2022-12-29T06:21:01;9.80;99.90
42245;DHT22;27912;51.828;5.688;2022-12-29T06:23:27;9.80;99.90
42245;DHT22;27912;51.828;5.688;2022-12-29T06:25:53;9.80;99.90
42245;DHT22;27912;51.828;5.688;2022-12-29T06:28:18;9.80;99.90
42245;DHT22;27912;51.828;5.688;2022-12-29T06:30:45;9.90;99.90
42245;DHT22;27912;51.828;5.688;2022-12-29T06:33:11;9.90;99.90
42245;DHT22;27912;51.828;5.688;2022-12-29T06:35:37;10.00;99.90
42245;DHT22;27912;51.828;5.688;2022-12-29T06:38:02;10.10;99.90
42245;DHT22;27912;51.828;5.688;2022-12-29T06:40:28;10.10;99.90
42245;DHT22;27912;51.828;5.688;2022-12-29T06:42:53;10.20;99.90
42245;DHT22;27912;51.828;5.688;2022-12-29T06:45:19;10.20;99.90
42245;DHT22;27912;51.828;5.688;2022-12-29T06:47:44;10.20;99.90
42245;DHT22;27912;51.828;5.688;2022-12-29T06:50:10;10.30;99.90
42245;DHT22;27912;51.828;5.688;2022-12-29T06:52:35;10.30;99.90
42245;DHT22;27912;51.828;5.688;2022-12-29T06:55:01;10.40;99.90
42245;DHT22;27912;51.828;5.688;2022-12-29T06:57:27;10.30;99.90
42245;DHT22;27912;51.828;5.688;2022-12-29T06:59:52;10.30;99.90
42245;DHT22;27912;51.828;5.688;2022-12-29T07:02:21;10.30;99.90
42245;DHT22;27912;51.828;5.688;2022-12-29T07:04:46;10.30;99.90
42245;DHT22;27912;51.828;5.688;2022-12-29T07:07:12;10.30;99.90
42245;DHT22;27912;51.828;5.688;2022-12-29T07:09:37;10.30;99.90
42245;DHT22;27912;51.828;5.688;2022-12-29T07:12:03;10.30;99.90
42245;DHT22;27912;51.828;5.688;2022-12-29T07:14:29;10.40;99.90
42245;DHT22;27912;51.828;5.688;2022-12-29T07:16:54;10.40;99.90
42245;DHT22;27912;51.828;5.688;2022-12-29T07:19:20;10.40;99.90
42245;DHT22;27912;51.828;5.688;2022-12-29T07:21:45;10.50;99.90
42245;DHT22;27912;51.828;5.688;2022-12-29T07:24:11;10.50;99.90
42245;DHT22;27912;51.828;5.688;2022-12-29T07:26:36;10.50;99.90
42245;DHT22;27912;51.828;5.688;2022-12-29T07:29:03;10.50;99.90
42245;DHT22;27912;51.828;5.688;2022-12-29T07:31:28;10.50;99.90
42245;DHT22;27912;51.828;5.688;2022-12-29T07:33:54;10.50;99.90
42245;DHT22;27912;51.828;5.688;2022-12-29T07:36:20;10.50;99.90
42245;DHT22;27912;51.828;5.688;2022-12-29T07:38:45;10.50;99.90
42245;DHT22;27912;51.828;5.688;2022-12-29T07:41:11;10.50;99.90
42245;DHT22;27912;51.828;5.688;2022-12-29T07:43:37;10.60;99.90
42245;DHT22;27912;51.828;5.688;2022-12-29T07:46:03;10.60;99.90
42245;DHT22;27912;51.828;5.688;2022-12-29T07:48:29;10.60;99.90
42245;DHT22;27912;51.828;5.688;2022-12-29T07:50:54;10.60;99.90
42245;DHT22;27912;51.828;5.688;2022-12-29T07:53:20;10.60;99.90
42245;DHT22;27912;51.828;5.688;2022-12-29T07:55:46;10.60;99.90
42245;DHT22;27912;51.828;5.688;2022-12-29T07:58:11;10.50;99.90
42245;DHT22;27912;51.828;5.688;2022-12-29T08:00:38;10.40;99.90
42245;DHT22;27912;51.828;5.688;2022-12-29T08:03:04;10.30;99.90
42245;DHT22;27912;51.828;5.688;2022-12-29T08:05:31;10.30;99.90
42245;DHT22;27912;51.828;5.688;2022-12-29T08:07:56;10.30;99.90
42245;DHT22;27912;51.828;5.688;2022-12-29T08:10:22;10.20;99.90
42245;DHT22;27912;51.828;5.688;2022-12-29T08:12:48;10.20;99.90
42245;DHT22;27912;51.828;5.688;2022-12-29T08:15:13;10.20;99.90
42245;DHT22;27912;51.828;5.688;2022-12-29T08:17:39;10.20;99.90
42245;DHT22;27912;51.828;5.688;2022-12-29T08:20:05;10.30;99.90
42245;DHT22;27912;51.828;5.688;2022-12-29T08:22:31;10.30;99.90
42245;DHT22;27912;51.828;5.688;2022-12-29T08:24:56;10.30;99.90
42245;DHT22;27912;51.828;5.688;2022-12-29T08:27:22;10.30;99.90
42245;DHT22;27912;51.828;5.688;2022-12-29T08:29:48;10.30;99.90
42245;DHT22;27912;51.828;5.688;2022-12-29T08:32:14;10.30;99.90
42245;DHT22;27912;51.828;5.688;2022-12-29T08:34:40;10.30;99.90
42245;DHT22;27912;51.828;5.688;2022-12-29T08:37:05;10.30;99.90
42245;DHT22;27912;51.828;5.688;2022-12-29T08:39:31;10.30;99.90
42245;DHT22;27912;51.828;5.688;2022-12-29T08:41:57;10.40;99.90
42245;DHT22;27912;51.828;5.688;2022-12-29T08:44:22;10.40;99.90
42245;DHT22;27912;51.828;5.688;2022-12-29T08:46:48;10.50;99.90
42245;DHT22;27912;51.828;5.688;2022-12-29T08:49:13;10.50;99.90
42245;DHT22;27912;51.828;5.688;2022-12-29T08:51:39;10.60;99.90
42245;DHT22;27912;51.828;5.688;2022-12-29T08:54:05;10.60;99.90
42245;DHT22;27912;51.828;5.688;2022-12-29T08:56:30;10.60;99.90
42245;DHT22;27912;51.828;5.688;2022-12-29T08:58:56;10.70;99.90
42245;DHT22;27912;51.828;5.688;2022-12-29T09:01:22;10.60;99.90
42245;DHT22;27912;51.828;5.688;2022-12-29T09:03:48;10.70;99.90
42245;DHT22;27912;51.828;5.688;2022-12-29T09:06:15;10.70;99.90
42245;DHT22;27912;51.828;5.688;2022-12-29T09:08:42;10.80;99.90
42245;DHT22;27912;51.828;5.688;2022-12-29T09:11:13;10.80;99.90
42245;DHT22;27912;51.828;5.688;2022-12-29T09:13:39;10.80;99.90
42245;DHT22;27912;51.828;5.688;2022-12-29T09:16:05;10.70;99.90
42245;DHT22;27912;51.828;5.688;2022-12-29T09:18:31;10.70;99.90
42245;DHT22;27912;51.828;5.688;2022-12-29T09:21:01;10.60;99.90
42245;DHT22;27912;51.828;5.688;2022-12-29T09:23:28;10.60;99.90
42245;DHT22;27912;51.828;5.688;2022-12-29T09:25:54;10.60;99.90
42245;DHT22;27912;51.828;5.688;2022-12-29T09:28:20;10.60;99.90
42245;DHT22;27912;51.828;5.688;2022-12-29T09:30:46;10.60;99.90
42245;DHT22;27912;51.828;5.688;2022-12-29T09:33:12;10.70;99.90
42245;DHT22;27912;51.828;5.688;2022-12-29T09:35:40;10.70;99.90
42245;DHT22;27912;51.828;5.688;2022-12-29T09:38:06;10.70;99.90
42245;DHT22;27912;51.828;5.688;2022-12-29T09:40:33;10.70;99.90
42245;DHT22;27912;51.828;5.688;2022-12-29T09:45:47;10.60;99.90
42245;DHT22;27912;51.828;5.688;2022-12-29T09:48:23;10.60;99.90
42245;DHT22;27912;51.828;5.688;2022-12-29T09:50:58;10.60;99.90
42245;DHT22;27912;51.828;5.688;2022-12-29T09:53:31;10.50;99.90
42245;DHT22;27912;51.828;5.688;2022-12-29T09:56:01;10.50;99.90
42245;DHT22;27912;51.828;5.688;2022-12-29T09:59:04;10.50;99.90
42245;DHT22;27912;51.828;5.688;2022-12-29T10:01:56;10.40;99.90
42245;DHT22;27912;51.828;5.688;2022-12-29T10:04:26;10.30;99.90
42245;DHT22;27912;51.828;5.688;2022-12-29T10:07:05;10.20;99.90
42245;DHT22;27912;51.828;5.688;2022-12-29T10:21:33;9.90;99.90
42245;DHT22;27912;51.828;5.688;2022-12-29T10:24:05;9.80;99.90
42245;DHT22;27912;51.828;5.688;2022-12-29T10:26:37;9.70;99.90
42245;DHT22;27912;51.828;5.688;2022-12-29T10:29:16;9.80;99.90
42245;DHT22;27912;51.828;5.688;2022-12-29T10:32:00;9.80;99.90
42245;DHT22;27912;51.828;5.688;2022-12-29T10:34:41;9.80;99.90
42245;DHT22;27912;51.828;5.688;2022-12-29T10:43:29;9.80;99.90
42245;DHT22;27912;51.828;5.688;2022-12-29T10:46:02;9.80;99.90
42245;DHT22;27912;51.828;5.688;2022-12-29T10:48:34;9.80;99.90
42245;DHT22;27912;51.828;5.688;2022-12-29T10:51:04;9.80;99.90
42245;DHT22;27912;51.828;5.688;2022-12-29T10:53:46;9.80;99.90
42245;DHT22;27912;51.828;5.688;2022-12-29T10:56:30;9.80;99.90
42245;DHT22;27912;51.828;5.688;2022-12-29T10:59:10;9.90;99.90
42245;DHT22;27912;51.828;5.688;2022-12-29T11:04:39;10.10;99.90
42245;DHT22;27912;51.828;5.688;2022-12-29T11:07:09;10.10;99.90
42245;DHT22;27912;51.828;5.688;2022-12-29T11:09:37;10.20;99.90
42245;DHT22;27912;51.828;5.688;2022-12-29T11:17:29;10.30;99.90
42245;DHT22;27912;51.828;5.688;2022-12-29T11:19:55;10.30;99.90
42245;DHT22;27912;51.828;5.688;2022-12-29T11:22:22;10.30;99.90
42245;DHT22;27912;51.828;5.688;2022-12-29T11:24:49;10.40;99.90
42245;DHT22;27912;51.828;5.688;2022-12-29T11:29:42;10.40;99.90
42245;DHT22;27912;51.828;5.688;2022-12-29T11:32:24;10.40;99.90
42245;DHT22;27912;51.828;5.688;2022-12-29T11:34:50;10.50;99.90
42245;DHT22;27912;51.828;5.688;2022-12-29T11:39:59;10.50;99.90
42245;DHT22;27912;51.828;5.688;2022-12-29T11:42:58;10.50;99.90
42245;DHT22;27912;51.828;5.688;2022-12-29T11:45:35;10.50;99.90
42245;DHT22;27912;51.828;5.688;2022-12-29T11:48:17;10.50;99.90
42245;DHT22;27912;51.828;5.688;2022-12-29T11:50:53;10.50;99.90
42245;DHT22;27912;51.828;5.688;2022-12-29T11:53:25;10.50;99.90
42245;DHT22;27912;51.828;5.688;2022-12-29T11:55:54;10.70;99.90
42245;DHT22;27912;51.828;5.688;2022-12-29T11:58:27;10.70;99.90
42245;DHT22;27912;51.828;5.688;2022-12-29T12:00:53;10.70;99.90
42245;DHT22;27912;51.828;5.688;2022-12-29T12:03:23;10.70;99.90
42245;DHT22;27912;51.828;5.688;2022-12-29T12:05:57;10.70;99.90
42245;DHT22;27912;51.828;5.688;2022-12-29T12:11:18;10.60;99.90
42245;DHT22;27912;51.828;5.688;2022-12-29T12:14:02;10.60;99.90
42245;DHT22;27912;51.828;5.688;2022-12-29T12:16:48;10.50;99.90
42245;DHT22;27912;51.828;5.688;2022-12-29T12:21:56;10.50;99.90
42245;DHT22;27912;51.828;5.688;2022-12-29T12:24:37;10.50;99.90
42245;DHT22;27912;51.828;5.688;2022-12-29T12:27:12;10.50;99.90
42245;DHT22;27912;51.828;5.688;2022-12-29T12:32:48;10.40;99.90
42245;DHT22;27912;51.828;5.688;2022-12-29T12:35:36;10.40;99.90
42245;DHT22;27912;51.828;5.688;2022-12-29T12:43:49;10.40;99.90
42245;DHT22;27912;51.828;5.688;2022-12-29T12:46:42;10.40;99.90
42245;DHT22;27912;51.828;5.688;2022-12-29T12:49:35;10.40;99.90
42245;DHT22;27912;51.828;5.688;2022-12-29T12:55:06;10.40;99.90
42245;DHT22;27912;51.828;5.688;2022-12-29T13:00:19;10.60;99.90
42245;DHT22;27912;51.828;5.688;2022-12-29T13:08:23;10.80;99.90
42245;DHT22;27912;51.828;5.688;2022-12-29T13:11:23;10.80;99.90
42245;DHT22;27912;51.828;5.688;2022-12-29T13:24:31;10.70;99.90
42245;DHT22;27912;51.828;5.688;2022-12-29T13:30:04;10.70;99.90
42245;DHT22;27912;51.828;5.688;2022-12-29T13:32:56;10.80;99.90
42245;DHT22;27912;51.828;5.688;2022-12-29T13:38:34;10.80;99.90
42245;DHT22;27912;51.828;5.688;2022-12-29T13:41:13;10.80;99.90
42245;DHT22;27912;51.828;5.688;2022-12-29T13:43:42;10.70;99.90
42245;DHT22;27912;51.828;5.688;2022-12-29T13:46:24;10.70;99.90
42245;DHT22;27912;51.828;5.688;2022-12-29T13:48:58;10.70;99.90
42245;DHT22;27912;51.828;5.688;2022-12-29T13:51:25;10.70;99.90
42245;DHT22;27912;51.828;5.688;2022-12-29T13:56:54;10.60;99.90
42245;DHT22;27912;51.828;5.688;2022-12-29T13:59:40;10.50;99.90
42245;DHT22;27912;51.828;5.688;2022-12-29T14:02:11;10.50;99.90
42245;DHT22;27912;51.828;5.688;2022-12-29T14:04:58;10.40;99.90
42245;DHT22;27912;51.828;5.688;2022-12-29T14:07:25;10.30;99.90
42245;DHT22;27912;51.828;5.688;2022-12-29T14:09:55;10.10;99.90
42245;DHT22;27912;51.828;5.688;2022-12-29T14:12:27;10.00;99.90
42245;DHT22;27912;51.828;5.688;2022-12-29T14:14:53;9.90;99.90
42245;DHT22;27912;51.828;5.688;2022-12-29T14:17:20;9.80;99.90
42245;DHT22;27912;51.828;5.688;2022-12-29T14:19:51;9.70;99.90
42245;DHT22;27912;51.828;5.688;2022-12-29T14:22:24;9.70;99.90
42245;DHT22;27912;51.828;5.688;2022-12-29T14:24:50;9.60;99.90
42245;DHT22;27912;51.828;5.688;2022-12-29T14:29:46;9.40;99.90
42245;DHT22;27912;51.828;5.688;2022-12-29T14:34:51;9.40;99.90
42245;DHT22;27912;51.828;5.688;2022-12-29T14:37:37;9.40;99.90
42245;DHT22;27912;51.828;5.688;2022-12-29T14:42:48;9.50;99.90
42245;DHT22;27912;51.828;5.688;2022-12-29T14:47:44;9.50;99.90
42245;DHT22;27912;51.828;5.688;2022-12-29T14:55:39;9.50;99.90
42245;DHT22;27912;51.828;5.688;2022-12-29T14:58:12;9.50;99.90
42245;DHT22;27912;51.828;5.688;2022-12-29T15:00:41;9.50;99.90
42245;DHT22;27912;51.828;5.688;2022-12-29T15:06:11;9.50;99.90
42245;DHT22;27912;51.828;5.688;2022-12-29T15:08:49;9.50;99.90
42245;DHT22;27912;51.828;5.688;2022-12-29T15:11:20;9.50;99.90
42245;DHT22;27912;51.828;5.688;2022-12-29T15:13:47;9.50;99.90
42245;DHT22;27912;51.828;5.688;2022-12-29T15:16:30;9.50;99.90
42245;DHT22;27912;51.828;5.688;2022-12-29T15:18:57;9.50;99.90
42245;DHT22;27912;51.828;5.688;2022-12-29T15:21:29;9.50;99.90
42245;DHT22;27912;51.828;5.688;2022-12-29T15:23:55;9.50;99.90
42245;DHT22;27912;51.828;5.688;2022-12-29T15:26:21;9.40;99.90
42245;DHT22;27912;51.828;5.688;2022-12-29T15:28:49;9.40;99.90
42245;DHT22;27912;51.828;5.688;2022-12-29T15:31:24;9.30;99.90
42245;DHT22;27912;51.828;5.688;2022-12-29T15:33:54;9.40;99.90
42245;DHT22;27912;51.828;5.688;2022-12-29T15:36:26;9.30;99.90
42245;DHT22;27912;51.828;5.688;2022-12-29T15:38:52;9.30;99.90
42245;DHT22;27912;51.828;5.688;2022-12-29T15:44:28;9.40;99.90
42245;DHT22;27912;51.828;5.688;2022-12-29T15:46:55;9.40;99.90
42245;DHT22;27912;51.828;5.688;2022-12-29T15:49:20;9.30;99.90
42245;DHT22;27912;51.828;5.688;2022-12-29T15:51:46;9.30;99.90
42245;DHT22;27912;51.828;5.688;2022-12-29T15:54:17;9.30;99.90
42245;DHT22;27912;51.828;5.688;2022-12-29T15:56:43;9.20;99.90
42245;DHT22;27912;51.828;5.688;2022-12-29T15:59:30;9.20;99.90
42245;DHT22;27912;51.828;5.688;2022-12-29T16:01:57;9.20;99.90
42245;DHT22;27912;51.828;5.688;2022-12-29T16:04:26;9.10;99.90
42245;DHT22;27912;51.828;5.688;2022-12-29T16:12:13;9.10;99.90
42245;DHT22;27912;51.828;5.688;2022-12-29T16:14:50;9.10;99.90
42245;DHT22;27912;51.828;5.688;2022-12-29T16:17:21;9.10;99.90
42245;DHT22;27912;51.828;5.688;2022-12-29T16:19:57;9.10;99.90
42245;DHT22;27912;51.828;5.688;2022-12-29T16:22:31;9.10;99.90
42245;DHT22;27912;51.828;5.688;2022-12-29T16:25:03;9.10;99.90
42245;DHT22;27912;51.828;5.688;2022-12-29T16:27:36;9.10;99.90
42245;DHT22;27912;51.828;5.688;2022-12-29T16:30:27;9.20;99.90
42245;DHT22;27912;51.828;5.688;2022-12-29T16:32:54;9.10;99.90
42245;DHT22;27912;51.828;5.688;2022-12-29T16:35:48;9.10;99.90
42245;DHT22;27912;51.828;5.688;2022-12-29T16:38:22;9.10;99.90
42245;DHT22;27912;51.828;5.688;2022-12-29T16:41:00;9.00;99.90
42245;DHT22;27912;51.828;5.688;2022-12-29T16:43:32;8.90;99.90
42245;DHT22;27912;51.828;5.688;2022-12-29T16:46:18;8.90;99.90
42245;DHT22;27912;51.828;5.688;2022-12-29T16:48:56;8.80;99.90
42245;DHT22;27912;51.828;5.688;2022-12-29T16:51:31;8.80;99.90
42245;DHT22;27912;51.828;5.688;2022-12-29T16:53:58;8.80;99.90
42245;DHT22;27912;51.828;5.688;2022-12-29T16:56:26;8.70;99.90
42245;DHT22;27912;51.828;5.688;2022-12-29T16:59:17;8.70;99.90
42245;DHT22;27912;51.828;5.688;2022-12-29T17:01:46;8.70;99.90
42245;DHT22;27912;51.828;5.688;2022-12-29T17:04:13;8.70;99.90
42245;DHT22;27912;51.828;5.688;2022-12-29T17:06:39;8.70;99.90
42245;DHT22;27912;51.828;5.688;2022-12-29T17:09:22;8.60;99.90
42245;DHT22;27912;51.828;5.688;2022-12-29T17:11:54;8.60;99.90
42245;DHT22;27912;51.828;5.688;2022-12-29T17:14:28;8.60;99.90
42245;DHT22;27912;51.828;5.688;2022-12-29T17:16:55;8.60;99.90
42245;DHT22;27912;51.828;5.688;2022-12-29T17:19:28;8.50;99.90
42245;DHT22;27912;51.828;5.688;2022-12-29T17:21:54;8.50;99.90
42245;DHT22;27912;51.828;5.688;2022-12-29T17:24:20;8.50;99.90
42245;DHT22;27912;51.828;5.688;2022-12-29T17:26:49;8.50;99.90
42245;DHT22;27912;51.828;5.688;2022-12-29T17:29:29;8.40;99.90
42245;DHT22;27912;51.828;5.688;2022-12-29T17:31:55;8.40;99.90
42245;DHT22;27912;51.828;5.688;2022-12-29T17:34:21;8.30;99.90
42245;DHT22;27912;51.828;5.688;2022-12-29T17:36:47;8.30;99.90
42245;DHT22;27912;51.828;5.688;2022-12-29T17:39:13;8.30;99.90
42245;DHT22;27912;51.828;5.688;2022-12-29T17:41:38;8.20;99.90
42245;DHT22;27912;51.828;5.688;2022-12-29T17:44:05;8.20;99.90
42245;DHT22;27912;51.828;5.688;2022-12-29T17:46:31;8.20;99.90
42245;DHT22;27912;51.828;5.688;2022-12-29T17:48:57;8.10;99.90
42245;DHT22;27912;51.828;5.688;2022-12-29T17:51:23;8.10;99.90
42245;DHT22;27912;51.828;5.688;2022-12-29T17:53:49;8.10;99.90
42245;DHT22;27912;51.828;5.688;2022-12-29T17:56:16;8.00;99.90
42245;DHT22;27912;51.828;5.688;2022-12-29T17:58:42;8.00;99.90
42245;DHT22;27912;51.828;5.688;2022-12-29T18:01:09;8.00;99.90
42245;DHT22;27912;51.828;5.688;2022-12-29T18:03:37;7.90;99.90
42245;DHT22;27912;51.828;5.688;2022-12-29T18:06:04;8.00;99.90
42245;DHT22;27912;51.828;5.688;2022-12-29T18:08:34;7.90;99.90
42245;DHT22;27912;51.828;5.688;2022-12-29T18:10:59;7.90;99.90
42245;DHT22;27912;51.828;5.688;2022-12-29T18:13:28;7.80;99.90
42245;DHT22;27912;51.828;5.688;2022-12-29T18:15:54;7.80;99.90